• Join FlightAware (Why Join?)
  • Login
  • US Flag 
02:15PM EDT


 

Airport Tracker/Info


-or-


 

Live Flight TrackerFlight Track Log ✈ N66SG ✈ 02-May-2013 ✈ KPTK - KUNV

Flight Track Log - Related Links

Times and Time Zones

All times are in EDT time to prevent confusion due to time zone crossing. See the N66SG flight status page for this flight to view local times or setup timezone preferences in your user account.

Time Position Orientation Groundspeed Altitude Reporting Facility
EDT Latitude Longitude Course Direction KTS MPH feet Rate Location/Type
01:53PM 42.6653 -83.4014 83° East 168 193 1,700  Level Cleveland Center
01:55PM 42.6767 -83.2831 83° East 260 299 6,000 3,120 Climbing Cleveland Center
01:56PM 42.6872 -83.1792 82° East 265 305 9,300 3,240 Climbing Cleveland Center
01:57PM 42.6497 -83.0928 121° Southeast 262 302 12,500 2,760 Climbing Cleveland Center
01:58PM 42.5925 -83.0369 144° Southeast 271 312 14,900 2,700 Climbing Cleveland Center
01:59PM 42.5169 -82.9550 141° Southeast 290 334 18,000 2,940 Climbing Cleveland Center
02:00PM 42.4458 -82.8736 140° Southeast 321 369 20,800 2,880 Climbing Cleveland Center
02:01PM 42.3786 -82.7925 138° Southeast 328 377 23,800 3,000 Climbing Cleveland Center
02:02PM 42.3092 -82.7058 137° Southeast 328 377 26,800 3,000 Climbing Cleveland Center
02:03PM 42.2442 -82.6250 137° Southeast 328 377 29,800 2,760 Climbing Cleveland Center
02:04PM 42.1767 -82.5444 138° Southeast 328 377 32,400 1,560 Climbing Cleveland Center
02:05PM 42.0989 -82.4608 141° Southeast 340 391 33,000 300 Climbing Cleveland Center
02:06PM 42.0511 -82.3225 115° Southeast 375 432 33,000  Level Cleveland Center
02:07PM 42.0075 -82.1647 110° East 410 472 33,000  Level Cleveland Center
02:08PM 41.9681 -81.9878 107° East 444 511 33,000  Level Cleveland Center
02:09PM 41.9283 -81.8222 108° East 459 528 33,000  Level Cleveland Center
02:10PM 41.8922 -81.6739 108° East 464 534 33,000  Level Cleveland Center
02:11PM 41.8519 -81.5114 108° East 469 540 33,000  Level Cleveland Center
02:12PM 41.8114 -81.3464 108° East 469 540 33,000  Level Cleveland Center
02:13PM 41.7708 -81.1817 108° East 469 540 33,000  Level Cleveland Center
02:14PM 41.7297 -81.0144 108° East 464 534 33,000  Level Cleveland Center
02:15PM 41.6844 -80.8361 109° East 469 540 33,000 -60 Level Cleveland Center
02:16PM 41.6411 -80.6747 110° East 464 534 32,900 -420 Descending Cleveland Center
02:17PM 41.5994 -80.5136 109° East 459 528 32,200 -900 Descending Cleveland Center
02:18PM 41.5575 -80.3556 109° East 453 521 31,100 -1,140 Descending Cleveland Center
02:19PM 41.5194 -80.1950 108° East 453 521 30,000 -1,140 Descending Cleveland Center
02:20PM 41.4875 -80.0372 105° East 448 516 28,900 -1,200 Descending Cleveland Center
02:21PM 41.4783 -79.8736 94° East 437 503 27,700 -1,380 Descending Cleveland Center
02:22PM 41.4753 -79.7103 91° East 437 503 26,200 -1,500 Descending Cleveland Center
02:23PM 41.4572 -79.5525 99° East 437 503 24,700 -1,140 Descending Cleveland Center
02:24PM 41.4036 -79.4067 116° Southeast 425 489 24,000 -1,080 Descending Cleveland Center
02:25PM 41.3542 -79.2636 115° Southeast 425 489 22,600 -1,500 Descending Cleveland Center
02:26PM 41.3089 -79.1347 115° Southeast 430 495 21,100 -1,500 Descending Cleveland Center
02:27PM 41.2633 -79.0003 114° Southeast 420 483 19,600 -1,560 Descending Cleveland Center
02:28PM 41.2194 -78.8633 113° Southeast 409 471 18,000 -1,740 Descending Cleveland Center
02:30PM 41.1136 -78.5600 115° Southeast 400 460 14,200 -1,740 Descending New York Center
02:31PM 41.0539 -78.4542 127° Southeast 400 460 12,600 -1,740 Descending New York Center
02:32PM 40.9942 -78.3456 126° Southeast 386 444 10,800 -1,620 Descending New York Center
02:33PM 40.9436 -78.2547 126° Southeast 348 400 9,400 -1,800 Descending New York Center
02:34PM 40.8989 -78.1731 126° Southeast 303 349 7,300 -2,040 Descending New York Center
02:35PM 40.8597 -78.0975 124° Southeast 269 310 5,400 -1,620 Descending New York Center
02:36PM 40.8203 -78.0272 127° Southeast 248 285 4,100 -1,020 Descending New York Center
02:37PM 40.7928 -77.9667 121° Southeast 221 254 3,400 -900 Descending New York Center
02:38PM 40.8147 -77.9142 61° Northeast 145 167 2,400 -1,020 Descending New York Center